createdAt,value
2023-04-18T00:00:59.979Z,12.8
2023-04-18T00:06:19.441Z,12.8
2023-04-18T00:11:39.136Z,12.79
2023-04-18T00:16:58.012Z,12.79
2023-04-18T00:27:35.758Z,12.79
2023-04-18T00:32:54.931Z,12.78
2023-04-18T00:38:14.716Z,12.78
2023-04-18T00:43:34.198Z,12.78
2023-04-18T00:48:53.386Z,12.78
2023-04-18T00:54:13.119Z,12.78
2023-04-18T00:59:32.075Z,12.78
2023-04-18T01:10:10.730Z,12.78
2023-04-18T01:15:29.538Z,12.77
2023-04-18T01:20:48.747Z,12.77
2023-04-18T01:26:08.431Z,12.77
2023-04-18T01:31:27.861Z,12.76
2023-04-18T01:36:46.715Z,12.76
2023-04-18T01:42:05.700Z,12.76
2023-04-18T01:47:24.821Z,12.76
2023-04-18T01:52:43.763Z,12.75
2023-04-18T01:58:02.669Z,12.76
2023-04-18T02:03:22.540Z,12.75
2023-04-18T02:08:41.720Z,12.75
2023-04-18T02:19:20.129Z,12.74
2023-04-18T02:24:49.643Z,12.74
2023-04-18T02:29:58.878Z,12.74
2023-04-18T02:35:18.328Z,12.74
2023-04-18T02:40:38.099Z,12.74
2023-04-18T02:45:57.366Z,12.73
2023-04-18T02:51:17.041Z,12.73
2023-04-18T02:56:35.868Z,12.72
2023-04-18T03:01:55.600Z,12.73
2023-04-18T03:07:15.611Z,12.72
2023-04-18T03:12:34.816Z,12.72
2023-04-18T03:17:54.215Z,12.72
2023-04-18T03:23:13.201Z,12.72
2023-04-18T03:33:51.460Z,12.71
2023-04-18T03:39:10.938Z,12.71
2023-04-18T03:44:29.825Z,12.71
2023-04-18T03:49:48.607Z,12.7
2023-04-18T03:55:07.897Z,12.7
2023-04-18T04:00:26.830Z,12.7
2023-04-18T04:05:45.685Z,12.7
2023-04-18T04:11:05.030Z,12.69
2023-04-18T04:16:24.018Z,12.68
2023-04-18T04:21:42.795Z,12.68
2023-04-18T04:27:02.205Z,12.68
2023-04-18T04:32:21.464Z,12.68
2023-04-18T04:37:40.359Z,12.68
2023-04-18T04:42:59.728Z,12.68
2023-04-18T04:48:18.916Z,12.67
2023-04-18T04:53:38.132Z,12.67
2023-04-18T04:58:57.665Z,12.67
2023-04-18T05:04:17.403Z,12.66
2023-04-18T05:09:36.471Z,12.67
2023-04-18T05:14:55.283Z,12.67
2023-04-18T05:20:14.195Z,12.67
2023-04-18T05:25:33.553Z,12.67
2023-04-18T05:30:52.585Z,12.7
2023-04-18T05:36:11.384Z,12.72
2023-04-18T05:41:30.576Z,12.78
2023-04-18T05:46:50.650Z,12.87
2023-04-18T05:52:10.127Z,12.93
2023-04-18T05:57:29.825Z,12.96
2023-04-18T06:02:48.056Z,12.98
2023-04-18T06:08:07.053Z,13
2023-04-18T06:13:26.430Z,13.05
2023-04-18T06:18:45.693Z,13.12
2023-04-18T06:24:04.792Z,13.25
2023-04-18T06:29:24.313Z,13.33
2023-04-18T06:34:43.900Z,13.41
2023-04-18T06:40:02.929Z,13.54
2023-04-18T06:45:22.603Z,13.69
2023-04-18T06:50:41.846Z,13.78
2023-04-18T06:56:01.541Z,13.85
2023-04-18T07:01:21.030Z,13.94
2023-04-18T07:06:40.614Z,14.12
2023-04-18T07:11:59.401Z,14.08
2023-04-18T07:17:18.682Z,14
2023-04-18T07:22:37.641Z,13.96
2023-04-18T07:27:57.215Z,14.02
2023-04-18T07:33:26.804Z,14.34
2023-04-18T07:38:35.913Z,14.25
2023-04-18T07:43:55.223Z,14.2
2023-04-18T07:49:14.304Z,14.2
2023-04-18T07:54:32.901Z,14.26
2023-04-18T07:59:52.621Z,14.25
2023-04-18T08:05:11.201Z,14.36
2023-04-18T08:10:30.149Z,14.37
2023-04-18T08:15:49.535Z,14.36
2023-04-18T08:21:09.254Z,14.34
2023-04-18T08:26:28.408Z,14.33
2023-04-18T08:31:47.558Z,14.35
2023-04-18T08:37:07.117Z,14.36
2023-04-18T08:42:26.384Z,14.34
2023-04-18T08:47:45.250Z,14.38
2023-04-18T08:53:04.373Z,14.35
2023-04-18T08:58:23.969Z,14.38
2023-04-18T09:03:43.736Z,14.34
2023-04-18T09:09:02.859Z,14.39
2023-04-18T09:14:22.497Z,14.38
2023-04-18T09:19:41.955Z,14.38
2023-04-18T09:25:00.992Z,14.4
2023-04-18T09:30:20.164Z,14.39
2023-04-18T09:35:39.899Z,14.41
2023-04-18T09:40:58.935Z,14.39
2023-04-18T09:46:18.203Z,14.44
2023-04-18T09:51:37.176Z,14.39
2023-04-18T09:56:56.627Z,14.38
2023-04-18T10:02:16.198Z,14.39
2023-04-18T10:07:35.511Z,14.38
2023-04-18T10:12:54.886Z,14.41
2023-04-18T10:18:14.189Z,14.39
2023-04-18T10:23:34.241Z,14.38
2023-04-18T10:28:53.822Z,14.38
2023-04-18T10:34:12.272Z,14.38
2023-04-18T10:39:31.932Z,14.39
2023-04-18T10:44:50.241Z,14.4
2023-04-18T10:50:08.999Z,14.39
2023-04-18T10:55:27.740Z,14.39
2023-04-18T11:06:06.336Z,14.38
2023-04-18T11:11:25.803Z,14.39
2023-04-18T11:16:44.967Z,14.4
2023-04-18T11:22:03.887Z,14.39
2023-04-18T11:32:42.571Z,14.39
2023-04-18T11:38:01.364Z,14.38
2023-04-18T11:43:20.885Z,14.38
2023-04-18T11:48:40.493Z,14.39
2023-04-18T11:53:59.642Z,14.39
2023-04-18T12:04:38.914Z,14.39
2023-04-18T12:09:57.402Z,14.38
2023-04-18T12:15:16.288Z,14.39
2023-04-18T12:20:36.010Z,14.41
2023-04-18T12:25:55.790Z,14.39
2023-04-18T12:31:15.382Z,14.4
2023-04-18T12:36:34.970Z,14.39
2023-04-18T12:41:53.659Z,14.39
2023-04-18T12:47:12.753Z,14.38
2023-04-18T12:52:32.291Z,14.4
2023-04-18T12:57:51.572Z,14.4
2023-04-18T13:03:13.166Z,14.39
2023-04-18T13:08:29.576Z,14.38
2023-04-18T13:13:48.958Z,14.41
2023-04-18T13:20:48.568Z,14.39
2023-04-18T13:29:48.364Z,14.4
2023-04-18T13:30:16.083Z,14.4
2023-04-18T13:35:35.042Z,14.39
2023-04-18T13:41:04.643Z,14.4
2023-04-18T13:46:14.310Z,14.39
2023-04-18T13:51:33.580Z,14.39
2023-04-18T13:56:52.368Z,14.39
2023-04-18T14:02:11.915Z,14.39
2023-04-18T14:12:50.063Z,14.4
2023-04-18T14:18:07.936Z,14.38
2023-04-18T14:23:26.815Z,14.39
2023-04-18T14:28:45.397Z,14.39
2023-04-18T14:34:04.500Z,14.4
2023-04-18T14:39:23.376Z,14.4
2023-04-18T14:44:42.232Z,14.38
2023-04-18T14:50:01.480Z,14.4
2023-04-18T14:55:20.814Z,14.39
2023-04-18T15:00:39.790Z,14.38
2023-04-18T15:05:59.426Z,14.38
2023-04-18T15:11:18.620Z,14.38
2023-04-18T15:16:38.258Z,14.38
2023-04-18T15:21:57.810Z,14.38
2023-04-18T15:27:17.288Z,14.38
2023-04-18T15:32:36.333Z,14.32
2023-04-18T15:37:55.988Z,13.55
2023-04-18T15:43:15.046Z,13.34
2023-04-18T15:48:34.479Z,13.31
2023-04-18T15:53:53.528Z,13.29
2023-04-18T15:59:12.241Z,13.31
2023-04-18T16:04:31.604Z,13.35
2023-04-18T16:09:51.171Z,13.29
2023-04-18T16:15:10.340Z,13.24
2023-04-18T16:20:29.575Z,13.2
2023-04-18T16:25:49.181Z,13.17
2023-04-18T16:31:08.554Z,13.16
2023-04-18T16:36:27.997Z,13.14
2023-04-18T16:41:46.829Z,13.13
2023-04-18T16:47:05.878Z,13.1
2023-04-18T16:52:25.319Z,13.07
2023-04-18T16:57:44.641Z,13.02
2023-04-18T17:03:04.305Z,13
2023-04-18T17:08:31.240Z,12.99
2023-04-18T17:19:01.767Z,12.98
2023-04-18T17:24:21.268Z,12.95
2023-04-18T17:29:40.569Z,12.94
2023-04-18T17:34:59.971Z,12.92
2023-04-18T17:40:19.665Z,12.91
2023-04-18T17:45:38.527Z,12.9
2023-04-18T17:50:57.711Z,12.9
2023-04-18T17:56:17.286Z,12.89
2023-04-18T18:01:37.011Z,12.88
2023-04-18T18:06:56.465Z,12.88
2023-04-18T18:12:15.612Z,12.89
2023-04-18T18:17:34.547Z,12.88
2023-04-18T18:22:53.707Z,12.88
2023-04-18T18:28:12.548Z,12.88
2023-04-18T18:33:31.690Z,12.88
2023-04-18T18:38:50.594Z,12.88
2023-04-18T18:44:10.136Z,12.88
2023-04-18T18:49:29.836Z,12.88
2023-04-18T18:54:48.621Z,12.88
2023-04-18T19:00:08.683Z,12.87
2023-04-18T19:05:27.628Z,12.88
2023-04-18T19:10:46.541Z,12.88
2023-04-18T19:16:05.365Z,12.88
2023-04-18T19:21:24.988Z,12.87
2023-04-18T19:26:43.801Z,12.87
2023-04-18T19:32:03.534Z,12.87
2023-04-18T19:37:22.763Z,12.87
2023-04-18T19:42:41.904Z,12.87
2023-04-18T19:48:01.495Z,12.86
2023-04-18T19:53:20.619Z,12.86
2023-04-18T19:58:39.988Z,12.86
2023-04-18T20:03:59.682Z,12.86
2023-04-18T20:09:19.300Z,12.86
2023-04-18T20:14:38.915Z,12.86
2023-04-18T20:19:58.608Z,12.86
2023-04-18T20:25:18.280Z,12.86
2023-04-18T20:30:37.669Z,12.86
2023-04-18T20:35:56.562Z,12.86
2023-04-18T20:41:15.020Z,12.85
2023-04-18T20:46:34.595Z,12.85
2023-04-18T20:51:53.449Z,12.85
2023-04-18T20:57:13.109Z,12.85
2023-04-18T21:02:32.547Z,12.86
2023-04-18T21:07:51.485Z,12.84
2023-04-18T21:13:10.322Z,12.85
2023-04-18T21:18:29.262Z,12.84
2023-04-18T21:23:48.488Z,12.85
2023-04-18T21:29:07.981Z,12.84
2023-04-18T21:34:27.487Z,12.85
2023-04-18T21:39:46.877Z,12.84
2023-04-18T21:45:06.418Z,12.84
2023-04-18T21:50:25.970Z,12.84
2023-04-18T22:01:05.704Z,12.83
2023-04-18T22:06:24.921Z,12.84
2023-04-18T22:11:44.257Z,12.83
2023-04-18T22:17:03.396Z,12.83
2023-04-18T22:22:22.273Z,12.83
2023-04-18T22:27:40.407Z,12.83
2023-04-18T22:32:59.448Z,12.82
2023-04-18T22:38:18.873Z,12.82
2023-04-18T22:43:38.599Z,12.83
2023-04-18T22:48:57.485Z,12.83
2023-04-18T22:54:17.224Z,12.82
2023-04-18T22:59:36.522Z,12.82
2023-04-18T23:04:55.402Z,12.82
2023-04-18T23:10:14.842Z,12.82
2023-04-18T23:15:34.220Z,12.81
2023-04-18T23:20:53.696Z,12.82
2023-04-18T23:26:13.453Z,12.82
2023-04-18T23:31:33.020Z,12.82
2023-04-18T23:36:51.998Z,12.81
2023-04-18T23:42:11.419Z,12.81
2023-04-18T23:47:30.667Z,12.81
2023-04-18T23:52:49.655Z,12.81
2023-04-18T23:58:08.417Z,12.81
